sensor_id;sensor_type;location;lat;lon;timestamp;P1;durP1;ratioP1;P2;durP2;ratioP2
22983;SDS011;11658;48.908;9.140;2024-03-02T05:00:30;12.53;;;10.63;;
22983;SDS011;11658;48.908;9.140;2024-03-02T05:03:14;13.33;;;10.43;;
22983;SDS011;11658;48.908;9.140;2024-03-02T05:05:49;13.33;;;10.77;;
22983;SDS011;11658;48.908;9.140;2024-03-02T05:08:20;13.97;;;10.90;;
22983;SDS011;11658;48.908;9.140;2024-03-02T05:10:57;14.17;;;10.73;;
22983;SDS011;11658;48.908;9.140;2024-03-02T05:13:44;12.10;;;10.03;;
22983;SDS011;11658;48.908;9.140;2024-03-02T05:16:10;14.83;;;11.27;;
22983;SDS011;11658;48.908;9.140;2024-03-02T05:18:50;13.23;;;10.97;;
22983;SDS011;11658;48.908;9.140;2024-03-02T05:21:19;14.30;;;11.33;;
22983;SDS011;11658;48.908;9.140;2024-03-02T05:24:06;14.17;;;11.53;;
22983;SDS011;11658;48.908;9.140;2024-03-02T05:26:32;14.33;;;11.53;;
22983;SDS011;11658;48.908;9.140;2024-03-02T05:29:03;13.73;;;10.87;;
22983;SDS011;11658;48.908;9.140;2024-03-02T05:31:38;14.50;;;11.03;;
22983;SDS011;11658;48.908;9.140;2024-03-02T05:34:12;13.03;;;11.13;;
22983;SDS011;11658;48.908;9.140;2024-03-02T05:36:43;16.13;;;11.10;;
22983;SDS011;11658;48.908;9.140;2024-03-02T05:39:25;14.03;;;11.07;;
22983;SDS011;11658;48.908;9.140;2024-03-02T05:44:57;13.27;;;10.23;;
22983;SDS011;11658;48.908;9.140;2024-03-02T05:47:31;14.33;;;11.53;;
22983;SDS011;11658;48.908;9.140;2024-03-02T05:49:58;15.97;;;11.97;;
22983;SDS011;11658;48.908;9.140;2024-03-02T05:52:26;17.03;;;12.27;;
22983;SDS011;11658;48.908;9.140;2024-03-02T05:54:55;13.73;;;10.90;;
22983;SDS011;11658;48.908;9.140;2024-03-02T05:57:21;14.93;;;10.90;;
22983;SDS011;11658;48.908;9.140;2024-03-02T06:00:24;14.90;;;11.37;;
22983;SDS011;11658;48.908;9.140;2024-03-02T06:02:56;14.87;;;12.10;;
22983;SDS011;11658;48.908;9.140;2024-03-02T06:05:38;15.30;;;12.53;;
22983;SDS011;11658;48.908;9.140;2024-03-02T06:08:17;16.93;;;12.60;;
22983;SDS011;11658;48.908;9.140;2024-03-02T06:10:43;15.33;;;11.20;;
22983;SDS011;11658;48.908;9.140;2024-03-02T06:13:11;17.40;;;12.20;;
22983;SDS011;11658;48.908;9.140;2024-03-02T06:15:39;14.57;;;11.77;;
22983;SDS011;11658;48.908;9.140;2024-03-02T06:18:12;14.07;;;11.33;;
22983;SDS011;11658;48.908;9.140;2024-03-02T06:20:47;16.17;;;11.97;;
22983;SDS011;11658;48.908;9.140;2024-03-02T06:23:20;17.40;;;12.47;;
22983;SDS011;11658;48.908;9.140;2024-03-02T06:25:49;15.20;;;10.97;;
22983;SDS011;11658;48.908;9.140;2024-03-02T06:28:15;13.87;;;11.13;;
22983;SDS011;11658;48.908;9.140;2024-03-02T06:30:47;13.60;;;11.13;;
22983;SDS011;11658;48.908;9.140;2024-03-02T06:33:18;12.07;;;10.50;;
22983;SDS011;11658;48.908;9.140;2024-03-02T06:35:47;14.13;;;10.63;;
22983;SDS011;11658;48.908;9.140;2024-03-02T06:38:23;13.33;;;10.50;;
22983;SDS011;11658;48.908;9.140;2024-03-02T06:40:59;13.30;;;10.23;;
22983;SDS011;11658;48.908;9.140;2024-03-02T06:46:24;11.43;;;8.93;;
22983;SDS011;11658;48.908;9.140;2024-03-02T06:48:56;13.47;;;10.07;;
22983;SDS011;11658;48.908;9.140;2024-03-02T06:51:37;10.83;;;9.30;;
22983;SDS011;11658;48.908;9.140;2024-03-02T06:54:03;12.13;;;9.83;;
22983;SDS011;11658;48.908;9.140;2024-03-02T06:56:37;10.90;;;9.60;;
22983;SDS011;11658;48.908;9.140;2024-03-02T06:59:06;12.07;;;9.67;;
22983;SDS011;11658;48.908;9.140;2024-03-02T07:01:55;12.00;;;9.80;;
22983;SDS011;11658;48.908;9.140;2024-03-02T07:07:27;11.60;;;9.40;;
22983;SDS011;11658;48.908;9.140;2024-03-02T07:09:52;11.47;;;10.03;;
22983;SDS011;11658;48.908;9.140;2024-03-02T07:12:23;12.40;;;10.10;;
22983;SDS011;11658;48.908;9.140;2024-03-02T07:14:59;12.23;;;10.17;;
22983;SDS011;11658;48.908;9.140;2024-03-02T07:17:28;14.07;;;10.47;;
22983;SDS011;11658;48.908;9.140;2024-03-02T07:20:11;12.73;;;10.47;;
22983;SDS011;11658;48.908;9.140;2024-03-02T07:23:03;11.77;;;10.50;;
22983;SDS011;11658;48.908;9.140;2024-03-02T07:25:34;12.70;;;11.03;;
22983;SDS011;11658;48.908;9.140;2024-03-02T07:28:04;13.37;;;10.73;;
22983;SDS011;11658;48.908;9.140;2024-03-02T07:30:33;12.20;;;10.20;;
22983;SDS011;11658;48.908;9.140;2024-03-02T07:33:04;12.77;;;10.13;;
22983;SDS011;11658;48.908;9.140;2024-03-02T07:35:36;10.90;;;9.20;;
22983;SDS011;11658;48.908;9.140;2024-03-02T07:40:57;10.37;;;9.20;;
22983;SDS011;11658;48.908;9.140;2024-03-02T07:43:47;10.80;;;8.67;;
22983;SDS011;11658;48.908;9.140;2024-03-02T07:49:12;9.97;;;8.37;;
22983;SDS011;11658;48.908;9.140;2024-03-02T07:51:44;10.97;;;8.80;;
22983;SDS011;11658;48.908;9.140;2024-03-02T07:54:19;10.40;;;8.60;;
22983;SDS011;11658;48.908;9.140;2024-03-02T07:56:48;9.17;;;8.20;;
22983;SDS011;11658;48.908;9.140;2024-03-02T07:59:16;9.00;;;8.10;;
22983;SDS011;11658;48.908;9.140;2024-03-02T08:01:48;10.30;;;8.33;;
22983;SDS011;11658;48.908;9.140;2024-03-02T08:04:52;9.60;;;7.97;;
22983;SDS011;11658;48.908;9.140;2024-03-02T08:07:45;8.70;;;7.50;;
22983;SDS011;11658;48.908;9.140;2024-03-02T08:10:25;9.17;;;7.60;;
22983;SDS011;11658;48.908;9.140;2024-03-02T08:13:31;8.83;;;7.47;;
22983;SDS011;11658;48.908;9.140;2024-03-02T08:16:37;7.80;;;6.83;;
22983;SDS011;11658;48.908;9.140;2024-03-02T08:19:32;8.13;;;7.13;;
22983;SDS011;11658;48.908;9.140;2024-03-02T08:22:39;9.33;;;7.13;;
22983;SDS011;11658;48.908;9.140;2024-03-02T08:25:42;7.50;;;6.73;;
22983;SDS011;11658;48.908;9.140;2024-03-02T08:50:22;9.43;;;7.60;;
22983;SDS011;11658;48.908;9.140;2024-03-02T08:52:47;7.10;;;6.40;;
22983;SDS011;11658;48.908;9.140;2024-03-02T08:55:13;6.90;;;6.20;;
22983;SDS011;11658;48.908;9.140;2024-03-02T08:57:47;8.63;;;6.07;;
22983;SDS011;11658;48.908;9.140;2024-03-02T09:00:15;7.70;;;5.80;;
22983;SDS011;11658;48.908;9.140;2024-03-02T09:02:43;7.77;;;5.90;;
22983;SDS011;11658;48.908;9.140;2024-03-02T09:05:18;6.47;;;5.77;;
22983;SDS011;11658;48.908;9.140;2024-03-02T09:07:44;6.37;;;5.60;;
22983;SDS011;11658;48.908;9.140;2024-03-02T09:10:10;6.57;;;5.50;;
22983;SDS011;11658;48.908;9.140;2024-03-02T09:12:38;5.90;;;5.30;;
22983;SDS011;11658;48.908;9.140;2024-03-02T09:15:08;6.40;;;5.70;;
22983;SDS011;11658;48.908;9.140;2024-03-02T09:17:34;6.40;;;5.20;;
22983;SDS011;11658;48.908;9.140;2024-03-02T09:19:59;5.57;;;4.90;;
22983;SDS011;11658;48.908;9.140;2024-03-02T09:22:30;5.30;;;4.80;;
22983;SDS011;11658;48.908;9.140;2024-03-02T09:24:57;5.33;;;4.73;;
22983;SDS011;11658;48.908;9.140;2024-03-02T09:27:25;5.93;;;4.90;;
22983;SDS011;11658;48.908;9.140;2024-03-02T09:29:53;7.17;;;5.00;;
22983;SDS011;11658;48.908;9.140;2024-03-02T09:32:27;5.77;;;5.17;;
22983;SDS011;11658;48.908;9.140;2024-03-02T09:34:56;5.03;;;4.53;;
22983;SDS011;11658;48.908;9.140;2024-03-02T09:37:23;5.37;;;4.83;;
22983;SDS011;11658;48.908;9.140;2024-03-02T09:39:51;5.73;;;4.93;;
22983;SDS011;11658;48.908;9.140;2024-03-02T09:42:25;5.80;;;5.20;;
22983;SDS011;11658;48.908;9.140;2024-03-02T09:44:51;5.33;;;4.60;;
22983;SDS011;11658;48.908;9.140;2024-03-02T09:47:20;4.83;;;4.33;;
22983;SDS011;11658;48.908;9.140;2024-03-02T09:49:53;5.07;;;4.57;;
22983;SDS011;11658;48.908;9.140;2024-03-02T09:52:23;7.30;;;4.73;;
22983;SDS011;11658;48.908;9.140;2024-03-02T09:54:49;5.10;;;4.60;;
22983;SDS011;11658;48.908;9.140;2024-03-02T09:57:20;4.90;;;4.23;;
22983;SDS011;11658;48.908;9.140;2024-03-02T09:59:54;5.07;;;4.57;;
22983;SDS011;11658;48.908;9.140;2024-03-02T10:02:25;6.97;;;5.00;;
22983;SDS011;11658;48.908;9.140;2024-03-02T10:04:54;6.23;;;4.87;;
22983;SDS011;11658;48.908;9.140;2024-03-02T10:07:23;4.97;;;4.43;;
22983;SDS011;11658;48.908;9.140;2024-03-02T10:09:49;4.40;;;4.00;;
22983;SDS011;11658;48.908;9.140;2024-03-02T10:12:20;5.00;;;4.50;;
22983;SDS011;11658;48.908;9.140;2024-03-02T10:14:50;5.03;;;4.27;;
22983;SDS011;11658;48.908;9.140;2024-03-02T10:17:39;7.17;;;6.47;;
22983;SDS011;11658;48.908;9.140;2024-03-02T10:20:21;4.80;;;4.23;;
22983;SDS011;11658;48.908;9.140;2024-03-02T10:22:48;4.47;;;4.07;;
22983;SDS011;11658;48.908;9.140;2024-03-02T10:32:33;4.43;;;4.03;;
22983;SDS011;11658;48.908;9.140;2024-03-02T10:35:55;4.33;;;3.90;;
22983;SDS011;11658;48.908;9.140;2024-03-02T10:38:33;4.30;;;3.80;;
22983;SDS011;11658;48.908;9.140;2024-03-02T10:41:08;4.77;;;4.07;;
22983;SDS011;11658;48.908;9.140;2024-03-02T10:44:17;5.03;;;3.20;;
22983;SDS011;11658;48.908;9.140;2024-03-02T10:47:06;3.90;;;3.50;;
22983;SDS011;11658;48.908;9.140;2024-03-02T10:53:14;4.33;;;3.30;;
22983;SDS011;11658;48.908;9.140;2024-03-02T10:55:48;3.40;;;3.10;;
22983;SDS011;11658;48.908;9.140;2024-03-02T10:58:33;5.63;;;3.17;;
22983;SDS011;11658;48.908;9.140;2024-03-02T11:01:01;3.93;;;3.27;;
22983;SDS011;11658;48.908;9.140;2024-03-02T11:03:48;3.07;;;2.77;;
22983;SDS011;11658;48.908;9.140;2024-03-02T11:06:15;2.93;;;2.63;;
22983;SDS011;11658;48.908;9.140;2024-03-02T11:08:42;3.97;;;2.90;;
22983;SDS011;11658;48.908;9.140;2024-03-02T11:11:14;2.60;;;2.40;;
22983;SDS011;11658;48.908;9.140;2024-03-02T11:13:47;4.10;;;3.70;;
22983;SDS011;11658;48.908;9.140;2024-03-02T11:16:52;2.80;;;2.43;;
22983;SDS011;11658;48.908;9.140;2024-03-02T11:22:12;2.60;;;2.17;;
22983;SDS011;11658;48.908;9.140;2024-03-02T11:24:38;2.63;;;2.17;;
22983;SDS011;11658;48.908;9.140;2024-03-02T11:27:07;2.13;;;1.93;;
22983;SDS011;11658;48.908;9.140;2024-03-02T11:34:40;3.20;;;2.90;;
22983;SDS011;11658;48.908;9.140;2024-03-02T11:37:10;2.03;;;1.80;;
22983;SDS011;11658;48.908;9.140;2024-03-02T11:39:37;2.80;;;1.53;;
22983;SDS011;11658;48.908;9.140;2024-03-02T11:42:05;1.90;;;1.70;;
22983;SDS011;11658;48.908;9.140;2024-03-02T11:44:34;5.73;;;2.83;;
22983;SDS011;11658;48.908;9.140;2024-03-02T11:47:01;1.77;;;1.50;;
22983;SDS011;11658;48.908;9.140;2024-03-02T11:49:37;1.70;;;1.50;;
22983;SDS011;11658;48.908;9.140;2024-03-02T11:52:04;1.80;;;1.47;;
22983;SDS011;11658;48.908;9.140;2024-03-02T11:54:32;8.00;;;2.40;;
22983;SDS011;11658;48.908;9.140;2024-03-02T11:57:02;3.10;;;2.10;;
22983;SDS011;11658;48.908;9.140;2024-03-02T11:59:28;2.20;;;1.73;;
22983;SDS011;11658;48.908;9.140;2024-03-02T12:01:55;1.27;;;1.17;;
22983;SDS011;11658;48.908;9.140;2024-03-02T12:04:23;2.03;;;1.70;;
22983;SDS011;11658;48.908;9.140;2024-03-02T12:06:56;1.27;;;1.13;;
22983;SDS011;11658;48.908;9.140;2024-03-02T12:09:25;1.37;;;1.27;;
22983;SDS011;11658;48.908;9.140;2024-03-02T12:12:06;2.40;;;1.30;;
22983;SDS011;11658;48.908;9.140;2024-03-02T12:14:33;1.60;;;1.20;;
22983;SDS011;11658;48.908;9.140;2024-03-02T12:17:01;1.23;;;0.93;;
22983;SDS011;11658;48.908;9.140;2024-03-02T12:19:27;1.67;;;1.10;;
22983;SDS011;11658;48.908;9.140;2024-03-02T12:21:55;1.30;;;1.10;;
22983;SDS011;11658;48.908;9.140;2024-03-02T12:24:22;3.10;;;2.60;;
22983;SDS011;11658;48.908;9.140;2024-03-02T12:26:51;2.50;;;1.40;;
22983;SDS011;11658;48.908;9.140;2024-03-02T12:29:18;1.20;;;1.10;;
22983;SDS011;11658;48.908;9.140;2024-03-02T12:31:45;1.23;;;1.10;;
22983;SDS011;11658;48.908;9.140;2024-03-02T12:34:15;3.47;;;1.60;;
22983;SDS011;11658;48.908;9.140;2024-03-02T12:36:42;1.30;;;1.20;;
22983;SDS011;11658;48.908;9.140;2024-03-02T12:39:08;1.93;;;1.20;;
22983;SDS011;11658;48.908;9.140;2024-03-02T12:41:37;2.43;;;1.43;;
22983;SDS011;11658;48.908;9.140;2024-03-02T12:44:03;2.10;;;1.20;;
22983;SDS011;11658;48.908;9.140;2024-03-02T12:46:32;1.53;;;1.10;;
22983;SDS011;11658;48.908;9.140;2024-03-02T12:48:58;1.60;;;1.30;;
22983;SDS011;11658;48.908;9.140;2024-03-02T12:51:29;1.70;;;1.57;;
22983;SDS011;11658;48.908;9.140;2024-03-02T12:53:55;2.30;;;1.40;;
22983;SDS011;11658;48.908;9.140;2024-03-02T12:56:22;2.77;;;1.10;;
22983;SDS011;11658;48.908;9.140;2024-03-02T12:58:52;1.43;;;1.10;;
22983;SDS011;11658;48.908;9.140;2024-03-02T13:01:21;1.07;;;0.93;;
22983;SDS011;11658;48.908;9.140;2024-03-02T13:03:50;2.87;;;0.90;;
22983;SDS011;11658;48.908;9.140;2024-03-02T13:06:22;2.90;;;0.97;;
22983;SDS011;11658;48.908;9.140;2024-03-02T13:08:48;0.97;;;0.90;;
22983;SDS011;11658;48.908;9.140;2024-03-02T13:11:15;6.47;;;1.17;;
22983;SDS011;11658;48.908;9.140;2024-03-02T13:13:41;1.53;;;1.10;;
22983;SDS011;11658;48.908;9.140;2024-03-02T13:16:08;1.03;;;0.93;;
22983;SDS011;11658;48.908;9.140;2024-03-02T13:18:35;2.13;;;1.57;;
22983;SDS011;11658;48.908;9.140;2024-03-02T13:21:00;1.73;;;1.10;;
22983;SDS011;11658;48.908;9.140;2024-03-02T13:23:26;1.10;;;0.80;;
22983;SDS011;11658;48.908;9.140;2024-03-02T13:25:52;1.10;;;0.97;;
22983;SDS011;11658;48.908;9.140;2024-03-02T13:28:17;1.47;;;1.07;;
22983;SDS011;11658;48.908;9.140;2024-03-02T13:30:43;1.03;;;0.80;;
22983;SDS011;11658;48.908;9.140;2024-03-02T13:33:09;0.77;;;0.73;;
22983;SDS011;11658;48.908;9.140;2024-03-02T13:35:35;0.80;;;0.80;;
22983;SDS011;11658;48.908;9.140;2024-03-02T13:38:00;0.43;;;0.43;;
22983;SDS011;11658;48.908;9.140;2024-03-02T13:40:26;4.17;;;1.50;;
22983;SDS011;11658;48.908;9.140;2024-03-02T13:42:52;0.70;;;0.70;;
22983;SDS011;11658;48.908;9.140;2024-03-02T13:45:19;2.03;;;1.60;;
22983;SDS011;11658;48.908;9.140;2024-03-02T13:47:44;0.80;;;0.70;;
22983;SDS011;11658;48.908;9.140;2024-03-02T13:50:10;1.40;;;0.83;;
22983;SDS011;11658;48.908;9.140;2024-03-02T13:52:35;0.77;;;0.77;;
22983;SDS011;11658;48.908;9.140;2024-03-02T13:55:01;1.13;;;0.80;;
22983;SDS011;11658;48.908;9.140;2024-03-02T13:57:27;2.30;;;0.90;;
22983;SDS011;11658;48.908;9.140;2024-03-02T13:59:53;0.83;;;0.83;;
22983;SDS011;11658;48.908;9.140;2024-03-02T14:02:19;1.00;;;0.80;;
22983;SDS011;11658;48.908;9.140;2024-03-02T14:04:45;2.13;;;0.93;;
22983;SDS011;11658;48.908;9.140;2024-03-02T14:07:13;0.80;;;0.80;;
22983;SDS011;11658;48.908;9.140;2024-03-02T14:09:39;0.77;;;0.77;;
22983;SDS011;11658;48.908;9.140;2024-03-02T14:12:04;2.23;;;1.10;;
22983;SDS011;11658;48.908;9.140;2024-03-02T14:14:31;0.70;;;0.70;;
22983;SDS011;11658;48.908;9.140;2024-03-02T14:16:57;2.43;;;0.90;;
22983;SDS011;11658;48.908;9.140;2024-03-02T14:19:29;1.23;;;1.00;;
22983;SDS011;11658;48.908;9.140;2024-03-02T14:21:55;1.37;;;0.63;;
22983;SDS011;11658;48.908;9.140;2024-03-02T14:24:21;1.60;;;1.07;;
22983;SDS011;11658;48.908;9.140;2024-03-02T14:26:50;1.20;;;1.10;;
22983;SDS011;11658;48.908;9.140;2024-03-02T14:29:19;1.87;;;0.90;;
22983;SDS011;11658;48.908;9.140;2024-03-02T14:31:44;0.80;;;0.80;;
22983;SDS011;11658;48.908;9.140;2024-03-02T14:34:13;0.67;;;0.60;;
22983;SDS011;11658;48.908;9.140;2024-03-02T14:36:39;0.97;;;0.70;;
22983;SDS011;11658;48.908;9.140;2024-03-02T14:39:06;1.67;;;1.20;;
22983;SDS011;11658;48.908;9.140;2024-03-02T14:41:35;0.97;;;0.90;;
22983;SDS011;11658;48.908;9.140;2024-03-02T14:44:01;2.30;;;1.20;;
22983;SDS011;11658;48.908;9.140;2024-03-02T14:46:26;2.23;;;1.10;;
22983;SDS011;11658;48.908;9.140;2024-03-02T14:48:52;1.10;;;1.00;;
22983;SDS011;11658;48.908;9.140;2024-03-02T14:51:18;0.67;;;0.67;;
22983;SDS011;11658;48.908;9.140;2024-03-02T14:53:43;1.93;;;1.10;;
22983;SDS011;11658;48.908;9.140;2024-03-02T14:56:11;2.83;;;1.30;;
22983;SDS011;11658;48.908;9.140;2024-03-02T14:58:38;10.50;;;3.10;;
22983;SDS011;11658;48.908;9.140;2024-03-02T15:01:04;7.43;;;1.90;;
22983;SDS011;11658;48.908;9.140;2024-03-02T15:03:34;2.27;;;1.20;;
22983;SDS011;11658;48.908;9.140;2024-03-02T15:06:02;1.67;;;1.10;;
22983;SDS011;11658;48.908;9.140;2024-03-02T15:08:29;1.40;;;1.30;;
22983;SDS011;11658;48.908;9.140;2024-03-02T15:10:55;2.07;;;1.13;;
22983;SDS011;11658;48.908;9.140;2024-03-02T15:13:21;1.80;;;1.20;;
22983;SDS011;11658;48.908;9.140;2024-03-02T15:15:47;1.10;;;1.00;;
22983;SDS011;11658;48.908;9.140;2024-03-02T15:18:13;1.30;;;1.20;;
22983;SDS011;11658;48.908;9.140;2024-03-02T15:20:38;1.50;;;1.20;;
22983;SDS011;11658;48.908;9.140;2024-03-02T15:23:04;1.23;;;1.00;;
22983;SDS011;11658;48.908;9.140;2024-03-02T15:25:29;1.10;;;1.00;;
22983;SDS011;11658;48.908;9.140;2024-03-02T15:27:55;1.10;;;1.00;;
22983;SDS011;11658;48.908;9.140;2024-03-02T15:30:21;1.17;;;0.90;;
22983;SDS011;11658;48.908;9.140;2024-03-02T15:32:47;3.20;;;2.90;;
22983;SDS011;11658;48.908;9.140;2024-03-02T15:35:12;1.43;;;1.33;;
22983;SDS011;11658;48.908;9.140;2024-03-02T15:37:38;1.67;;;1.10;;
22983;SDS011;11658;48.908;9.140;2024-03-02T15:40:03;1.80;;;1.03;;
22983;SDS011;11658;48.908;9.140;2024-03-02T15:42:33;1.97;;;1.20;;
22983;SDS011;11658;48.908;9.140;2024-03-02T15:44:59;1.10;;;1.00;;
22983;SDS011;11658;48.908;9.140;2024-03-02T15:47:27;1.30;;;1.00;;
22983;SDS011;11658;48.908;9.140;2024-03-02T15:49:53;1.83;;;1.00;;
22983;SDS011;11658;48.908;9.140;2024-03-02T15:52:19;1.70;;;1.30;;
22983;SDS011;11658;48.908;9.140;2024-03-02T15:54:46;2.33;;;1.23;;
22983;SDS011;11658;48.908;9.140;2024-03-02T15:57:11;1.40;;;1.30;;
22983;SDS011;11658;48.908;9.140;2024-03-02T15:59:37;7.53;;;6.90;;
22983;SDS011;11658;48.908;9.140;2024-03-02T16:02:03;1.90;;;1.70;;
22983;SDS011;11658;48.908;9.140;2024-03-02T16:04:29;2.13;;;1.43;;
22983;SDS011;11658;48.908;9.140;2024-03-02T16:06:54;2.27;;;1.27;;
22983;SDS011;11658;48.908;9.140;2024-03-02T16:09:20;3.20;;;1.43;;
22983;SDS011;11658;48.908;9.140;2024-03-02T16:11:48;1.93;;;1.43;;
22983;SDS011;11658;48.908;9.140;2024-03-02T16:14:14;1.40;;;1.10;;
22983;SDS011;11658;48.908;9.140;2024-03-02T16:16:40;1.60;;;1.17;;
22983;SDS011;11658;48.908;9.140;2024-03-02T16:19:06;2.07;;;0.97;;
22983;SDS011;11658;48.908;9.140;2024-03-02T16:21:32;3.33;;;1.43;;
22983;SDS011;11658;48.908;9.140;2024-03-02T16:23:57;1.47;;;1.10;;
22983;SDS011;11658;48.908;9.140;2024-03-02T16:26:23;2.33;;;1.30;;
22983;SDS011;11658;48.908;9.140;2024-03-02T16:28:49;3.20;;;1.90;;
22983;SDS011;11658;48.908;9.140;2024-03-02T16:31:15;2.10;;;1.50;;
22983;SDS011;11658;48.908;9.140;2024-03-02T16:33:42;4.27;;;1.70;;
22983;SDS011;11658;48.908;9.140;2024-03-02T16:36:11;2.03;;;1.63;;
22983;SDS011;11658;48.908;9.140;2024-03-02T16:38:36;2.53;;;1.80;;
22983;SDS011;11658;48.908;9.140;2024-03-02T16:41:02;2.83;;;1.60;;
22983;SDS011;11658;48.908;9.140;2024-03-02T16:43:29;2.40;;;1.73;;
22983;SDS011;11658;48.908;9.140;2024-03-02T16:45:54;3.67;;;1.73;;
22983;SDS011;11658;48.908;9.140;2024-03-02T16:48:20;1.90;;;1.73;;
22983;SDS011;11658;48.908;9.140;2024-03-02T16:50:46;4.17;;;1.90;;
22983;SDS011;11658;48.908;9.140;2024-03-02T16:53:11;2.17;;;1.60;;
22983;SDS011;11658;48.908;9.140;2024-03-02T16:55:37;1.60;;;1.50;;
22983;SDS011;11658;48.908;9.140;2024-03-02T16:58:03;2.43;;;1.27;;
22983;SDS011;11658;48.908;9.140;2024-03-02T17:00:28;2.77;;;1.80;;
22983;SDS011;11658;48.908;9.140;2024-03-02T17:02:54;1.90;;;1.70;;
22983;SDS011;11658;48.908;9.140;2024-03-02T17:05:20;3.33;;;2.57;;
22983;SDS011;11658;48.908;9.140;2024-03-02T17:07:47;3.43;;;2.50;;
22983;SDS011;11658;48.908;9.140;2024-03-02T17:10:13;5.27;;;3.00;;
22983;SDS011;11658;48.908;9.140;2024-03-02T17:12:38;3.13;;;2.63;;
22983;SDS011;11658;48.908;9.140;2024-03-02T17:15:05;3.80;;;3.40;;
22983;SDS011;11658;48.908;9.140;2024-03-02T17:17:31;2.70;;;2.17;;
22983;SDS011;11658;48.908;9.140;2024-03-02T17:19:57;2.63;;;2.03;;
22983;SDS011;11658;48.908;9.140;2024-03-02T17:22:23;2.67;;;2.30;;
22983;SDS011;11658;48.908;9.140;2024-03-02T17:24:50;3.03;;;2.00;;
22983;SDS011;11658;48.908;9.140;2024-03-02T17:27:17;2.93;;;2.23;;
22983;SDS011;11658;48.908;9.140;2024-03-02T17:29:43;3.13;;;2.50;;
22983;SDS011;11658;48.908;9.140;2024-03-02T17:32:09;4.07;;;2.70;;
22983;SDS011;11658;48.908;9.140;2024-03-02T17:34:35;3.20;;;2.70;;
22983;SDS011;11658;48.908;9.140;2024-03-02T17:37:00;4.33;;;3.33;;
22983;SDS011;11658;48.908;9.140;2024-03-02T17:39:26;6.47;;;4.10;;
22983;SDS011;11658;48.908;9.140;2024-03-02T17:41:51;3.67;;;2.90;;
22983;SDS011;11658;48.908;9.140;2024-03-02T17:44:18;5.97;;;3.00;;
22983;SDS011;11658;48.908;9.140;2024-03-02T17:46:44;3.60;;;2.83;;
22983;SDS011;11658;48.908;9.140;2024-03-02T17:49:10;4.07;;;3.00;;
22983;SDS011;11658;48.908;9.140;2024-03-02T17:51:35;3.43;;;2.87;;
22983;SDS011;11658;48.908;9.140;2024-03-02T17:54:01;5.57;;;3.50;;
22983;SDS011;11658;48.908;9.140;2024-03-02T17:56:27;4.53;;;3.50;;
22983;SDS011;11658;48.908;9.140;2024-03-02T17:58:52;3.20;;;2.90;;
22983;SDS011;11658;48.908;9.140;2024-03-02T18:01:18;2.93;;;2.47;;
22983;SDS011;11658;48.908;9.140;2024-03-02T18:03:43;3.80;;;2.77;;
22983;SDS011;11658;48.908;9.140;2024-03-02T18:06:09;5.50;;;3.80;;
22983;SDS011;11658;48.908;9.140;2024-03-02T18:08:36;4.20;;;2.87;;
22983;SDS011;11658;48.908;9.140;2024-03-02T18:11:01;4.00;;;3.10;;
22983;SDS011;11658;48.908;9.140;2024-03-02T18:13:27;5.50;;;3.13;;
22983;SDS011;11658;48.908;9.140;2024-03-02T18:15:54;3.70;;;2.80;;
22983;SDS011;11658;48.908;9.140;2024-03-02T18:18:20;3.60;;;2.93;;
22983;SDS011;11658;48.908;9.140;2024-03-02T18:20:46;2.80;;;2.50;;
22983;SDS011;11658;48.908;9.140;2024-03-02T18:23:11;4.43;;;3.10;;
22983;SDS011;11658;48.908;9.140;2024-03-02T18:25:37;5.50;;;3.40;;
22983;SDS011;11658;48.908;9.140;2024-03-02T18:28:03;4.20;;;3.57;;
22983;SDS011;11658;48.908;9.140;2024-03-02T18:30:30;5.10;;;4.20;;
22983;SDS011;11658;48.908;9.140;2024-03-02T18:32:56;4.40;;;3.73;;
22983;SDS011;11658;48.908;9.140;2024-03-02T18:35:22;5.40;;;3.47;;
22983;SDS011;11658;48.908;9.140;2024-03-02T18:37:47;5.90;;;3.83;;
22983;SDS011;11658;48.908;9.140;2024-03-02T18:40:13;3.90;;;3.57;;
22983;SDS011;11658;48.908;9.140;2024-03-02T18:42:39;4.97;;;4.27;;
22983;SDS011;11658;48.908;9.140;2024-03-02T18:45:05;6.00;;;4.80;;
22983;SDS011;11658;48.908;9.140;2024-03-02T18:47:31;4.73;;;4.33;;
22983;SDS011;11658;48.908;9.140;2024-03-02T18:49:59;5.60;;;4.87;;
22983;SDS011;11658;48.908;9.140;2024-03-02T18:52:27;8.10;;;5.17;;
22983;SDS011;11658;48.908;9.140;2024-03-02T18:54:53;5.40;;;4.90;;
22983;SDS011;11658;48.908;9.140;2024-03-02T18:57:19;7.73;;;6.93;;
22983;SDS011;11658;48.908;9.140;2024-03-02T18:59:44;6.63;;;5.23;;
22983;SDS011;11658;48.908;9.140;2024-03-02T19:02:10;6.43;;;5.13;;
22983;SDS011;11658;48.908;9.140;2024-03-02T19:04:36;5.73;;;5.13;;
22983;SDS011;11658;48.908;9.140;2024-03-02T19:07:02;6.30;;;5.60;;
22983;SDS011;11658;48.908;9.140;2024-03-02T19:09:27;6.00;;;5.40;;
22983;SDS011;11658;48.908;9.140;2024-03-02T19:11:53;7.43;;;5.60;;
22983;SDS011;11658;48.908;9.140;2024-03-02T19:14:20;8.10;;;6.00;;
22983;SDS011;11658;48.908;9.140;2024-03-02T19:16:45;7.30;;;5.83;;
22983;SDS011;11658;48.908;9.140;2024-03-02T19:19:11;6.97;;;6.23;;
22983;SDS011;11658;48.908;9.140;2024-03-02T19:21:36;8.50;;;7.03;;
22983;SDS011;11658;48.908;9.140;2024-03-02T19:24:02;13.90;;;9.03;;
22983;SDS011;11658;48.908;9.140;2024-03-02T19:26:28;8.47;;;7.07;;
22983;SDS011;11658;48.908;9.140;2024-03-02T19:28:53;10.00;;;7.73;;
22983;SDS011;11658;48.908;9.140;2024-03-02T19:31:19;9.70;;;7.67;;
22983;SDS011;11658;48.908;9.140;2024-03-02T19:33:44;9.87;;;7.93;;
22983;SDS011;11658;48.908;9.140;2024-03-02T19:36:10;12.10;;;8.43;;
22983;SDS011;11658;48.908;9.140;2024-03-02T19:38:36;10.77;;;8.60;;
22983;SDS011;11658;48.908;9.140;2024-03-02T19:41:01;12.60;;;8.63;;
22983;SDS011;11658;48.908;9.140;2024-03-02T19:43:28;10.53;;;8.93;;
22983;SDS011;11658;48.908;9.140;2024-03-02T19:45:54;10.83;;;8.83;;
22983;SDS011;11658;48.908;9.140;2024-03-02T19:48:20;15.07;;;12.97;;
22983;SDS011;11658;48.908;9.140;2024-03-02T19:50:45;13.63;;;9.90;;
22983;SDS011;11658;48.908;9.140;2024-03-02T19:53:12;11.80;;;9.37;;
22983;SDS011;11658;48.908;9.140;2024-03-02T19:55:38;11.97;;;9.43;;
22983;SDS011;11658;48.908;9.140;2024-03-02T19:58:05;12.60;;;9.50;;
22983;SDS011;11658;48.908;9.140;2024-03-02T20:00:34;11.30;;;9.00;;
22983;SDS011;11658;48.908;9.140;2024-03-02T20:02:59;13.30;;;9.83;;
22983;SDS011;11658;48.908;9.140;2024-03-02T20:05:25;12.27;;;10.30;;
22983;SDS011;11658;48.908;9.140;2024-03-02T20:07:50;12.37;;;9.13;;
22983;SDS011;11658;48.908;9.140;2024-03-02T20:10:19;12.30;;;10.13;;
22983;SDS011;11658;48.908;9.140;2024-03-02T20:12:45;14.63;;;11.30;;
22983;SDS011;11658;48.908;9.140;2024-03-02T20:15:10;13.77;;;10.80;;
22983;SDS011;11658;48.908;9.140;2024-03-02T20:17:37;14.67;;;10.87;;
22983;SDS011;11658;48.908;9.140;2024-03-02T20:20:04;12.87;;;10.83;;
22983;SDS011;11658;48.908;9.140;2024-03-02T20:22:33;14.43;;;10.27;;
22983;SDS011;11658;48.908;9.140;2024-03-02T20:24:59;14.40;;;11.30;;
22983;SDS011;11658;48.908;9.140;2024-03-02T20:27:25;13.33;;;11.13;;
22983;SDS011;11658;48.908;9.140;2024-03-02T20:29:51;15.53;;;11.70;;
22983;SDS011;11658;48.908;9.140;2024-03-02T20:32:17;13.87;;;11.00;;
22983;SDS011;11658;48.908;9.140;2024-03-02T20:34:44;17.33;;;12.20;;
22983;SDS011;11658;48.908;9.140;2024-03-02T20:37:09;14.73;;;12.17;;
22983;SDS011;11658;48.908;9.140;2024-03-02T20:39:36;15.47;;;12.33;;
22983;SDS011;11658;48.908;9.140;2024-03-02T20:42:02;15.17;;;12.00;;
22983;SDS011;11658;48.908;9.140;2024-03-02T20:44:28;15.03;;;11.90;;
22983;SDS011;11658;48.908;9.140;2024-03-02T20:46:54;15.83;;;12.90;;
22983;SDS011;11658;48.908;9.140;2024-03-02T20:49:19;16.80;;;12.90;;